Time;durP1;ratioP1;P1;durP2;ratioP2;P2;SDS_P1;SDS_P2;PMS_P1;PMS_P2;Temp;Humidity;BMP_temperature;BMP_pressure;BME280_temperature;BME280_humidity;BME280_pressure;Samples;Min_cycle;Max_cycle;Signal;HPM_P1;HPM_P2
2021/12/06 00:01:08;;;;;;;1999.90;999.90;;;;;;;-1.68;60.76;100730.47;4956379;28;97725;-75
2021/12/06 00:03:41;;;;;;;1999.90;999.90;;;;;;;-1.71;60.87;100724.13;4965018;28;99195;-75
2021/12/06 00:06:11;;;;;;;1999.90;999.90;;;;;;;-1.69;60.78;100727.75;4968816;28;97552;-76
2021/12/06 00:08:39;;;;;;;1999.90;999.90;;;;;;;-1.70;61.07;100725.94;4943072;28;97089;-75
2021/12/06 00:11:09;;;;;;;1999.90;999.90;;;;;;;-1.73;60.84;100729.25;4956851;28;96725;-75
2021/12/06 00:13:38;;;;;;;1999.90;999.90;;;;;;;-1.72;60.72;100727.56;4951835;28;96776;-76
2021/12/06 00:16:11;;;;;;;1999.90;999.90;;;;;;;-1.73;61.15;100728.34;4945715;28;96981;-76
2021/12/06 00:18:39;;;;;;;1999.90;999.90;;;;;;;-1.73;61.32;100720.50;4943704;28;96997;-76
2021/12/06 00:21:08;;;;;;;1999.90;999.90;;;;;;;-1.73;60.79;100734.47;4943975;28;97476;-76
2021/12/06 00:23:38;;;;;;;1999.90;999.90;;;;;;;-1.75;61.36;100732.53;4942882;28;97798;-76
2021/12/06 00:26:07;;;;;;;1999.90;999.90;;;;;;;-1.76;60.62;100734.22;4942277;28;99149;-75
2021/12/06 00:28:35;;;;;;;1999.90;999.90;;;;;;;-1.75;61.06;100735.16;4941509;28;96811;-75
2021/12/06 00:31:03;;;;;;;1999.90;999.90;;;;;;;-1.76;60.70;100743.78;4940031;28;97978;-75
2021/12/06 00:33:32;;;;;;;1999.90;999.90;;;;;;;-1.76;61.28;100743.78;4940818;28;97986;-76
2021/12/06 00:36:04;;;;;;;1999.90;999.90;;;;;;;-1.76;61.48;100749.00;4941009;28;98968;-75
2021/12/06 00:38:34;;;;;;;1999.90;999.90;;;;;;;-1.76;60.84;100754.22;4941573;28;96979;-76
2021/12/06 00:41:04;;;;;;;1999.90;999.90;;;;;;;-1.76;60.57;100754.22;4950692;28;97973;-75
2021/12/06 00:43:32;;;;;;;1999.90;999.90;;;;;;;-1.74;60.51;100755.22;4949051;28;97906;-75
2021/12/06 00:46:01;;;;;;;1999.90;999.90;;;;;;;-1.75;60.63;100758.63;4943882;28;97693;-76
2021/12/06 00:48:28;;;;;;;1999.90;999.90;;;;;;;-1.76;61.29;100768.13;4942645;28;97338;-76
2021/12/06 00:50:57;;;;;;;1999.90;999.90;;;;;;;-1.77;60.44;100770.66;4943775;28;96984;-75
2021/12/06 00:53:24;;;;;;;1999.90;999.90;;;;;;;-1.80;60.45;100768.75;4943473;28;98752;-75
2021/12/06 00:55:52;;;;;;;1999.90;999.90;;;;;;;-1.80;60.52;100770.44;4957881;28;99093;-76
2021/12/06 00:58:21;;;;;;;1999.90;999.90;;;;;;;-1.80;60.68;100773.06;4942600;28;97363;-75
2021/12/06 01:00:51;;;;;;;1999.90;999.90;;;;;;;-1.80;60.92;100779.19;4925818;28;97742;-76
2021/12/06 01:03:28;;;;;;;1999.90;999.90;;;;;;;-1.83;60.89;100788.50;4949822;28;98752;-74
2021/12/06 01:05:57;;;;;;;1999.90;999.90;;;;;;;-1.83;60.63;100788.50;4943722;28;98926;-75
2021/12/06 01:08:25;;;;;;;1999.90;999.90;;;;;;;-1.85;60.74;100790.97;4935213;28;98771;-75
2021/12/06 01:10:54;;;;;;;1999.90;999.90;;;;;;;-1.88;60.52;100796.91;4940279;28;97343;-76
2021/12/06 01:13:28;;;;;;;1999.90;999.90;;;;;;;-1.88;60.46;100804.72;4923284;28;99320;-76
2021/12/06 01:15:56;;;;;;;1999.90;999.90;;;;;;;-1.87;60.42;100810.84;4937122;28;99083;-76
2021/12/06 01:18:25;;;;;;;1999.90;999.90;;;;;;;-1.87;60.68;100813.47;4938985;28;97539;-77
2021/12/06 01:21:02;;;;;;;1999.90;999.90;;;;;;;-1.87;61.22;100810.84;4940892;28;97164;-76
2021/12/06 01:23:42;;;;;;;1999.90;999.90;;;;;;;-1.87;60.62;100823.88;4936827;28;97697;-74
2021/12/06 01:26:30;;;;;;;1999.90;999.90;;;;;;;-1.88;60.41;100817.75;4923170;28;100286;-76
2021/12/06 01:29:14;;;;;;;1999.90;999.90;;;;;;;-1.89;60.35;100821.13;4923147;28;98866;-74
2021/12/06 01:31:50;;;;;;;1999.90;999.90;;;;;;;-1.88;60.53;100827.28;4924614;28;97459;-75
2021/12/06 01:39:56;;;;;;;1999.90;999.90;;;;;;;-1.93;60.94;100829.56;4936817;28;98237;-75
2021/12/06 01:42:25;;;;;;;1999.90;999.90;;;;;;;-1.94;60.35;100832.03;4937369;28;98266;-76
2021/12/06 01:44:56;;;;;;;1999.90;999.90;;;;;;;-1.98;60.71;100832.66;4940478;28;97632;-76
2021/12/06 01:47:30;;;;;;;1999.90;999.90;;;;;;;-2.01;60.46;100841.13;4939259;28;97206;-75
2021/12/06 01:50:00;;;;;;;1999.90;999.90;;;;;;;-2.02;60.52;100831.53;4939161;28;97872;-77
2021/12/06 01:52:36;;;;;;;1999.90;999.90;;;;;;;-2.02;61.00;100841.94;4939863;28;96937;-77
2021/12/06 01:55:05;;;;;;;1999.90;999.90;;;;;;;-2.02;60.57;100835.81;4937893;28;98231;-75
2021/12/06 01:57:33;;;;;;;1999.90;999.90;;;;;;;-2.02;60.81;100841.03;4953512;28;98019;-76
2021/12/06 02:00:03;;;;;;;1999.90;999.90;;;;;;;-2.04;60.84;100842.63;4923066;28;97075;-76
2021/12/06 02:02:42;;;;;;;1999.90;999.90;;;;;;;-2.04;60.31;100840.00;4938979;28;98206;-75
2021/12/06 02:05:17;;;;;;;1999.90;999.90;;;;;;;-2.05;61.20;100849.53;4923253;28;99725;-75
2021/12/06 02:07:45;;;;;;;1999.90;999.90;;;;;;;-2.05;60.44;100848.63;4939563;28;96941;-76
2021/12/06 02:10:13;;;;;;;1999.90;999.90;;;;;;;-2.05;60.82;100854.75;4943296;28;97223;-75
2021/12/06 02:12:41;;;;;;;1999.90;999.90;;;;;;;-2.07;60.36;100860.66;4942188;28;97328;-76
2021/12/06 02:15:24;;;;;;;1999.90;999.90;;;;;;;-2.08;60.98;100858.84;4923478;28;97729;-76
2021/12/06 02:18:02;;;;;;;1999.90;999.90;;;;;;;-2.11;61.21;100853.41;4955860;28;98097;-75
2021/12/06 02:20:30;;;;;;;1999.90;999.90;;;;;;;-2.10;61.02;100850.91;4923941;28;97851;-76
2021/12/06 02:22:59;;;;;;;1999.90;999.90;;;;;;;-2.10;60.74;100858.72;4923657;28;97374;-75
2021/12/06 02:25:28;;;;;;;1999.90;999.90;;;;;;;-2.10;60.89;100855.22;4923754;28;97689;-76
2021/12/06 02:27:57;;;;;;;1999.90;999.90;;;;;;;-2.11;61.08;100858.63;4940294;28;99180;-75
2021/12/06 02:30:25;;;;;;;1999.90;999.90;;;;;;;-2.12;60.91;100859.41;4940161;28;96954;-75
2021/12/06 02:32:53;;;;;;;1999.90;999.90;;;;;;;-2.13;61.01;100861.13;4940285;28;98146;-75
2021/12/06 02:35:23;;;;;;;1999.90;999.90;;;;;;;-2.13;60.96;100865.41;4914261;28;100472;-75
2021/12/06 02:37:56;;;;;;;1999.90;999.90;;;;;;;-2.14;60.72;100871.41;4939256;28;97580;-74
2021/12/06 02:40:28;;;;;;;1999.90;999.90;;;;;;;-2.15;60.64;100869.63;4943053;28;99077;-75
2021/12/06 02:42:57;;;;;;;1999.90;999.90;;;;;;;-2.15;61.19;100869.63;4940270;28;97780;-76
2021/12/06 02:45:27;;;;;;;1999.90;999.90;;;;;;;-2.16;61.22;100866.09;4943827;28;97664;-76
2021/12/06 02:47:56;;;;;;;1999.90;999.90;;;;;;;-2.18;60.80;100870.25;4941165;28;97373;-74
2021/12/06 02:50:34;;;;;;;1999.90;999.90;;;;;;;-2.17;60.84;100872.13;4940616;28;97095;-74
2021/12/06 02:53:03;;;;;;;1999.90;999.90;;;;;;;-2.19;60.93;100872.75;4958701;28;97595;-76
2021/12/06 02:55:35;;;;;;;1999.90;999.90;;;;;;;-2.21;60.96;100877.84;4923855;28;99286;-75
2021/12/06 02:58:14;;;;;;;1999.90;999.90;;;;;;;-2.21;60.61;100877.84;4957569;28;98081;-75
2021/12/06 03:00:46;;;;;;;1999.90;999.90;;;;;;;-2.21;60.67;100887.38;4942350;28;97633;-75
2021/12/06 03:03:16;;;;;;;1999.90;999.90;;;;;;;-2.22;60.57;100886.47;4924514;28;98321;-76
2021/12/06 03:05:46;;;;;;;1999.90;999.90;;;;;;;-2.22;61.04;100891.69;4940819;28;99045;-76
2021/12/06 03:08:13;;;;;;;1999.90;999.90;;;;;;;-2.21;61.27;100883.06;4942803;28;98136;-75
2021/12/06 03:10:43;;;;;;;1999.90;999.90;;;;;;;-2.22;60.71;100886.47;4959491;28;97233;-76
2021/12/06 03:13:10;;;;;;;1999.90;999.90;;;;;;;-2.20;61.31;100891.81;4940801;28;97651;-77
2021/12/06 03:15:39;;;;;;;1999.90;999.90;;;;;;;-2.20;60.54;100889.19;4940455;28;99348;-75
2021/12/06 03:18:07;;;;;;;1999.90;999.90;;;;;;;-2.21;60.92;100893.50;4942627;28;97664;-76
2021/12/06 03:20:35;;;;;;;1999.90;999.90;;;;;;;-2.21;61.08;100898.72;4941968;28;97418;-77
2021/12/06 03:23:04;;;;;;;1999.90;999.90;;;;;;;-2.22;60.90;100896.00;4917918;28;97504;-76
2021/12/06 03:25:31;;;;;;;1999.90;999.90;;;;;;;-2.21;61.30;100900.41;4942913;28;97689;-75
2021/12/06 03:28:01;;;;;;;1999.90;999.90;;;;;;;-2.22;60.73;100906.41;4939892;28;99019;-77
2021/12/06 03:30:31;;;;;;;1999.90;999.90;;;;;;;-2.24;60.98;100901.09;4913178;28;97230;-74
2021/12/06 03:32:59;;;;;;;1999.90;999.90;;;;;;;-2.25;61.05;100906.16;4923918;28;98035;-75
2021/12/06 03:35:28;;;;;;;1999.90;999.90;;;;;;;-2.26;60.99;100906.97;4938403;28;100729;-76
2021/12/06 03:37:56;;;;;;;1999.90;999.90;;;;;;;-2.28;60.82;100912.09;4941359;28;100571;-76
2021/12/06 03:40:24;;;;;;;1999.90;999.90;;;;;;;-2.27;61.03;100907.78;4942783;28;97536;-76
2021/12/06 03:42:53;;;;;;;1999.90;999.90;;;;;;;-2.24;61.21;100910.59;4942068;28;97271;-74
2021/12/06 03:45:22;;;;;;;1999.90;999.90;;;;;;;-2.24;60.98;100908.00;4940341;28;99922;-76
2021/12/06 03:47:50;;;;;;;1999.90;999.90;;;;;;;-2.23;60.98;100910.72;4924821;28;99434;-76
2021/12/06 03:50:17;;;;;;;1999.90;999.90;;;;;;;-2.22;60.98;100919.44;4942304;28;97206;-74
2021/12/06 03:52:47;;;;;;;1999.90;999.90;;;;;;;-2.23;60.84;100920.22;4940651;28;98322;-75
2021/12/06 03:55:15;;;;;;;1999.90;999.90;;;;;;;-2.22;60.98;100925.56;4936152;28;98051;-76
2021/12/06 03:57:43;;;;;;;1999.90;999.90;;;;;;;-2.25;60.66;100929.63;4929131;28;99365;-75
2021/12/06 04:00:14;;;;;;;1999.90;999.90;;;;;;;-2.26;60.78;100933.97;4946400;28;97045;-74
2021/12/06 04:02:51;;;;;;;1999.90;999.90;;;;;;;-2.28;60.73;100930.31;4971939;28;98608;-75
2021/12/06 04:05:22;;;;;;;1999.90;999.90;;;;;;;-2.27;61.11;100933.84;4954128;28;98883;-76
2021/12/06 04:07:50;;;;;;;1999.90;999.90;;;;;;;-2.27;60.79;100928.63;4927135;28;101251;-75
2021/12/06 04:10:19;;;;;;;1999.90;999.90;;;;;;;-2.27;61.01;100939.94;4929193;28;98827;-73
2021/12/06 04:12:47;;;;;;;1999.90;999.90;;;;;;;-2.27;61.25;100939.94;4927309;28;98466;-75
2021/12/06 04:15:16;;;;;;;1999.90;999.90;;;;;;;-2.30;61.09;100950.16;4920897;28;99259;-76
2021/12/06 04:17:44;;;;;;;1999.90;999.90;;;;;;;-2.30;61.17;100957.06;4936077;28;97539;-75
2021/12/06 04:20:14;;;;;;;1999.90;999.90;;;;;;;-2.29;60.77;100958.88;4920709;28;97768;-75
2021/12/06 04:22:42;;;;;;;1999.90;999.90;;;;;;;-2.28;61.13;100956.38;4937383;28;98040;-76
2021/12/06 04:25:12;;;;;;;1999.90;999.90;;;;;;;-2.28;60.92;100960.69;4941816;28;99198;-75
2021/12/06 04:27:42;;;;;;;1999.90;999.90;;;;;;;-2.32;61.13;100964.75;4925377;28;100924;-74
2021/12/06 04:30:12;;;;;;;1999.90;999.90;;;;;;;-2.34;61.11;100968.03;4938894;28;98317;-75
2021/12/06 04:32:40;;;;;;;1999.90;999.90;;;;;;;-2.40;60.83;100968.47;4940535;28;97658;-75
2021/12/06 04:35:09;;;;;;;1999.90;999.90;;;;;;;-2.44;61.45;100983.78;4939375;28;98299;-74
2021/12/06 04:37:38;;;;;;;1999.90;999.90;;;;;;;-2.47;61.74;100974.03;4940957;28;97936;-75
2021/12/06 04:40:09;;;;;;;1999.90;999.90;;;;;;;-2.51;61.41;100976.28;4924185;28;97065;-75
2021/12/06 04:42:37;;;;;;;1999.90;999.90;;;;;;;-2.49;61.41;100970.38;4940470;28;96707;-75
2021/12/06 04:45:06;;;;;;;1999.90;999.90;;;;;;;-2.48;61.44;100964.41;4923802;28;99602;-75
2021/12/06 04:47:34;;;;;;;1999.90;999.90;;;;;;;-2.44;61.30;100970.75;4938328;28;99293;-77
2021/12/06 04:50:02;;;;;;;1999.90;999.90;;;;;;;-2.40;61.05;100978.00;4940788;28;97716;-76
2021/12/06 04:52:30;;;;;;;1999.90;999.90;;;;;;;-2.37;60.91;100978.22;4941249;28;96938;-73
2021/12/06 04:55:01;;;;;;;1999.90;999.90;;;;;;;-2.34;61.13;100979.38;4923844;28;99718;-76
2021/12/06 04:57:39;;;;;;;1999.90;999.90;;;;;;;-2.31;61.13;100981.31;4939261;28;98926;-78
2021/12/06 05:00:13;;;;;;;1999.90;999.90;;;;;;;-2.28;60.55;100984.13;4941632;28;97221;-73
2021/12/06 05:02:42;;;;;;;1999.90;999.90;;;;;;;-2.27;60.89;100981.63;4951293;28;97795;-76
2021/12/06 05:05:13;;;;;;;1999.90;999.90;;;;;;;-2.30;60.68;100984.03;4936421;28;97944;-77
2021/12/06 05:07:56;;;;;;;1999.90;999.90;;;;;;;-2.32;60.28;100980.41;4920857;28;99326;-74
2021/12/06 05:10:26;;;;;;;1999.90;999.90;;;;;;;-2.29;60.54;100988.44;4931360;28;102127;-76
2021/12/06 05:12:56;;;;;;;1999.90;999.90;;;;;;;-2.27;61.26;100997.28;4938867;28;98828;-73
2021/12/06 05:15:27;;;;;;;1999.90;999.90;;;;;;;-2.26;60.64;101004.31;4938574;28;100074;-75
2021/12/06 05:17:55;;;;;;;1999.90;999.90;;;;;;;-2.24;60.87;101012.25;4931669;28;97833;-74
2021/12/06 05:20:23;;;;;;;1999.90;999.90;;;;;;;-2.23;60.64;101012.34;4941523;28;96855;-75
2021/12/06 05:22:52;;;;;;;1999.90;999.90;;;;;;;-2.21;60.28;101026.41;4938952;28;97256;-75
2021/12/06 05:25:22;;;;;;;1999.90;999.90;;;;;;;-2.21;60.50;101031.63;4939728;28;99229;-74
2021/12/06 05:27:53;;;;;;;1999.90;999.90;;;;;;;-2.20;60.22;101027.34;4921441;28;99091;-75
2021/12/06 05:30:24;;;;;;;1999.90;999.90;;;;;;;-2.20;61.08;101028.22;4940190;28;97599;-75
2021/12/06 05:32:53;;;;;;;1999.90;999.90;;;;;;;-2.20;60.19;101036.03;4930456;28;97368;-74
2021/12/06 05:35:21;;;;;;;1999.90;999.90;;;;;;;-2.18;60.20;101034.44;4941215;28;98545;-74
2021/12/06 05:37:53;;;;;;;1999.90;999.90;;;;;;;-2.16;60.87;101037.19;4940992;28;98762;-74
2021/12/06 05:40:23;;;;;;;1999.90;999.90;;;;;;;-2.18;60.40;101042.28;4941968;28;98804;-74
2021/12/06 05:42:53;;;;;;;1999.90;999.90;;;;;;;-2.22;60.63;101048.06;4941946;28;97465;-74
2021/12/06 05:45:23;;;;;;;1999.90;999.90;;;;;;;-2.24;60.37;101046.13;4940989;28;97025;-75
2021/12/06 05:47:52;;;;;;;1999.90;999.90;;;;;;;-2.25;60.80;101052.13;4937895;28;97659;-75
2021/12/06 05:50:20;;;;;;;1999.90;999.90;;;;;;;-2.27;60.60;101058.94;4941321;28;97190;-74
2021/12/06 05:52:49;;;;;;;1999.90;999.90;;;;;;;-2.29;60.99;101053.59;4939475;28;98627;-75
2021/12/06 05:55:16;;;;;;;1999.90;999.90;;;;;;;-2.30;61.37;101057.00;4939304;28;97822;-73
2021/12/06 05:57:44;;;;;;;1999.90;999.90;;;;;;;-2.31;60.83;101057.75;4939789;28;97824;-76
2021/12/06 06:00:16;;;;;;;1999.90;999.90;;;;;;;-2.36;61.14;101063.44;4940976;28;97499;-74
2021/12/06 06:02:46;;;;;;;1999.90;999.90;;;;;;;-2.37;60.84;101072.03;4941614;28;97374;-74
2021/12/06 06:05:14;;;;;;;1999.90;999.90;;;;;;;-2.38;60.64;101071.13;4922652;28;99369;-75
2021/12/06 06:07:42;;;;;;;1999.90;999.90;;;;;;;-2.38;60.94;101070.25;4942798;28;97927;-74
2021/12/06 06:10:09;;;;;;;1999.90;999.90;;;;;;;-2.39;60.67;101073.63;4940750;28;97208;-75
2021/12/06 06:12:37;;;;;;;1999.90;999.90;;;;;;;-2.41;61.10;101075.19;4943258;28;98300;-77
2021/12/06 06:15:06;;;;;;;1999.90;999.90;;;;;;;-2.41;61.22;101078.72;4942897;28;97622;-77
2021/12/06 06:17:43;;;;;;;1999.90;999.90;;;;;;;-2.41;60.88;101083.94;4944329;28;100509;-74
2021/12/06 06:20:13;;;;;;;1999.90;999.90;;;;;;;-2.49;61.23;101087.63;4944698;28;96764;-75
2021/12/06 06:22:41;;;;;;;1999.90;999.90;;;;;;;-2.50;61.13;101096.25;4945647;28;97676;-75
2021/12/06 06:25:09;;;;;;;1999.90;999.90;;;;;;;-2.48;61.45;101089.47;4944582;28;98891;-75
2021/12/06 06:27:37;;;;;;;1999.90;999.90;;;;;;;-2.46;61.28;101087.88;4944826;28;97897;-76
2021/12/06 06:30:06;;;;;;;1999.90;999.90;;;;;;;-2.44;60.76;101094.13;4946380;28;98211;-74
2021/12/06 06:32:34;;;;;;;1999.90;999.90;;;;;;;-2.40;61.40;101098.75;4945450;28;97866;-74
2021/12/06 06:35:04;;;;;;;1999.90;999.90;;;;;;;-2.44;60.92;101106.22;4946046;28;97607;-74
2021/12/06 06:37:32;;;;;;;1999.90;999.90;;;;;;;-2.41;60.89;101112.59;4943721;28;100551;-73
2021/12/06 06:40:00;;;;;;;1999.90;999.90;;;;;;;-2.40;60.68;101103.97;4945728;28;98268;-74
2021/12/06 06:42:28;;;;;;;1999.90;999.90;;;;;;;-2.40;61.07;101113.50;4921129;28;97021;-74
2021/12/06 06:44:56;;;;;;;1999.90;999.90;;;;;;;-2.40;61.07;101114.38;4945145;28;99312;-75
2021/12/06 06:47:24;;;;;;;1999.90;999.90;;;;;;;-2.40;60.92;101113.50;4946181;28;98366;-74
2021/12/06 06:49:53;;;;;;;1999.90;999.90;;;;;;;-2.39;60.55;101121.44;4944474;28;96831;-74
2021/12/06 06:52:23;;;;;;;1999.90;999.90;;;;;;;-2.41;61.19;101122.09;4939346;28;97303;-73
2021/12/06 06:54:50;;;;;;;1999.90;999.90;;;;;;;-2.42;60.93;101131.63;4946813;28;97856;-75
2021/12/06 06:57:18;;;;;;;1999.90;999.90;;;;;;;-2.40;60.46;101131.75;4946883;28;97114;-75
2021/12/06 06:59:47;;;;;;;1999.90;999.90;;;;;;;-2.41;60.54;101132.50;4945340;28;97046;-73
2021/12/06 07:02:15;;;;;;;1999.90;999.90;;;;;;;-2.43;60.51;101135.00;4945160;28;97753;-75
2021/12/06 07:04:44;;;;;;;1999.90;999.90;;;;;;;-2.44;60.67;101138.41;4960062;28;97712;-74
2021/12/06 07:07:12;;;;;;;1999.90;999.90;;;;;;;-2.45;60.49;101147.00;4945537;28;97656;-74
2021/12/06 07:09:43;;;;;;;1999.90;999.90;;;;;;;-2.46;61.04;101139.06;4946172;28;96833;-75
2021/12/06 07:12:17;;;;;;;1999.90;999.90;;;;;;;-2.48;60.09;101151.97;4948050;28;96779;-75
2021/12/06 07:14:46;;;;;;;1999.90;999.90;;;;;;;-2.49;60.62;101144.94;4946085;28;98985;-75
2021/12/06 07:17:14;;;;;;;1999.90;999.90;;;;;;;-2.49;60.69;101147.53;4946705;28;98561;-75
2021/12/06 07:19:42;;;;;;;1999.90;999.90;;;;;;;-2.50;60.49;101145.75;4947000;28;96814;-75
2021/12/06 07:22:10;;;;;;;1999.90;999.90;;;;;;;-2.51;60.33;101150.84;4948120;28;97241;-74
2021/12/06 07:24:38;;;;;;;1999.90;999.90;;;;;;;-2.52;60.17;101160.34;4947018;28;97691;-74
2021/12/06 07:27:07;;;;;;;1999.90;999.90;;;;;;;-2.55;60.57;101160.09;4946094;28;99317;-75
2021/12/06 07:29:36;;;;;;;1999.90;999.90;;;;;;;-2.56;60.05;101168.69;4945098;28;97370;-73
2021/12/06 07:32:05;;;;;;;1999.90;999.90;;;;;;;-2.59;60.16;101163.25;4929662;28;97261;-73
2021/12/06 07:34:35;;;;;;;1999.90;999.90;;;;;;;-2.59;60.24;101173.66;4947603;28;98681;-74
2021/12/06 07:37:03;;;;;;;1999.90;999.90;;;;;;;-2.66;60.49;101181.78;4945725;28;99118;-73
2021/12/06 07:39:31;;;;;;;1999.90;999.90;;;;;;;-2.70;60.95;101179.72;4946923;28;97135;-74
2021/12/06 07:41:59;;;;;;;1999.90;999.90;;;;;;;-2.69;60.22;101175.44;4949154;28;96811;-74
2021/12/06 07:44:28;;;;;;;1999.90;999.90;;;;;;;-2.70;60.44;101182.31;4957965;28;97605;-75
2021/12/06 07:46:56;;;;;;;1999.90;999.90;;;;;;;-2.69;61.05;101191.94;4952943;28;97581;-73
2021/12/06 07:49:24;;;;;;;1999.90;999.90;;;;;;;-2.71;60.71;101188.34;4971137;28;97134;-74
2021/12/06 07:51:51;;;;;;;1999.90;999.90;;;;;;;-2.70;60.24;101191.81;4966423;28;96920;-77
2021/12/06 07:54:19;;;;;;;1999.90;999.90;;;;;;;-2.67;60.40;101194.69;4970911;28;97751;-74
2021/12/06 07:56:47;;;;;;;1999.90;999.90;;;;;;;-2.70;60.68;101194.44;4965787;28;98102;-73
2021/12/06 07:59:19;;;;;;;1999.90;999.90;;;;;;;-2.69;60.86;101199.75;4965835;28;99354;-75
2021/12/06 08:01:48;;;;;;;1999.90;999.90;;;;;;;-2.68;60.62;101201.59;4967802;28;96829;-73
2021/12/06 08:04:16;;;;;;;1999.90;999.90;;;;;;;-2.68;60.22;101193.78;4960524;28;97645;-74
2021/12/06 08:06:44;;;;;;;1999.90;999.90;;;;;;;-2.67;60.69;101195.56;4963673;28;97640;-74
2021/12/06 08:09:14;;;;;;;1999.90;999.90;;;;;;;-2.70;60.16;101194.44;4957088;28;96760;-75
2021/12/06 08:11:48;;;;;;;1999.90;999.90;;;;;;;-2.74;60.55;101192.34;4952978;28;98274;-74
2021/12/06 08:14:16;;;;;;;1999.90;999.90;;;;;;;-2.75;60.16;101191.47;4965465;28;99038;-76
2021/12/06 08:16:44;;;;;;;1999.90;999.90;;;;;;;-2.72;60.43;101198.59;4948264;28;98019;-75
2021/12/06 08:19:13;;;;;;;1999.90;999.90;;;;;;;-2.71;60.16;101208.25;4948148;28;97109;-76
2021/12/06 08:21:41;;;;;;;1999.90;999.90;;;;;;;-2.70;60.38;101210.06;4947543;28;97145;-75
2021/12/06 08:24:09;;;;;;;1999.90;999.90;;;;;;;-2.69;60.35;101211.88;4948734;28;98211;-75
2021/12/06 08:26:39;;;;;;;1999.90;999.90;;;;;;;-2.69;60.33;101217.97;4946351;28;97632;-75
2021/12/06 08:29:08;;;;;;;1999.90;999.90;;;;;;;-2.72;60.56;101220.34;4946241;28;96974;-75
2021/12/06 08:31:37;;;;;;;1999.90;999.90;;;;;;;-2.81;60.61;101227.41;4947027;28;96823;-75
2021/12/06 08:34:05;;;;;;;1999.90;999.90;;;;;;;-2.85;60.08;101227.94;4944833;28;98601;-75
2021/12/06 08:36:34;;;;;;;1999.90;999.90;;;;;;;-2.83;61.05;101223.78;4945502;28;99544;-76
2021/12/06 08:39:02;;;;;;;1999.90;999.90;;;;;;;-2.82;60.64;101225.63;4946586;28;97289;-74
2021/12/06 08:41:31;;;;;;;1999.90;999.90;;;;;;;-2.79;60.06;101224.94;4944288;28;97256;-74
2021/12/06 08:44:01;;;;;;;1999.90;999.90;;;;;;;-2.79;60.41;101218.03;4941744;28;98148;-74
2021/12/06 08:46:32;;;;;;;1999.90;999.90;;;;;;;-2.79;59.93;101219.72;4943200;28;99690;-75
2021/12/06 08:49:04;;;;;;;1999.90;999.90;;;;;;;-2.81;60.42;101222.22;4944354;28;97685;-76
2021/12/06 08:51:36;;;;;;;1999.90;999.90;;;;;;;-2.86;59.94;101215.72;4946267;28;97210;-74
2021/12/06 08:54:05;;;;;;;1999.90;999.90;;;;;;;-2.88;60.60;101218.22;4944753;28;98290;-75
2021/12/06 08:56:35;;;;;;;1999.90;999.90;;;;;;;-2.89;60.43;101218.06;4942742;28;99180;-75
2021/12/06 08:59:03;;;;;;;1999.90;999.90;;;;;;;-2.89;60.55;101225.88;4944422;28;97182;-75
2021/12/06 09:01:31;;;;;;;1999.90;999.90;;;;;;;-2.94;60.46;101222.91;4942199;28;97079;-75
2021/12/06 09:04:19;;;;;;;1999.90;999.90;;;;;;;-2.95;60.18;101228.88;4941693;28;98347;-76
2021/12/06 09:06:50;;;;;;;1999.90;999.90;;;;;;;-2.94;60.07;101222.91;4944389;28;98236;-74
2021/12/06 09:09:20;;;;;;;1999.90;999.90;;;;;;;-2.92;60.53;101225.63;4943927;28;98012;-76
2021/12/06 09:11:49;;;;;;;1999.90;999.90;;;;;;;-2.91;59.93;101220.56;4941365;28;97322;-75
2021/12/06 09:14:17;;;;;;;1999.90;999.90;;;;;;;-2.86;60.16;101234.88;4943470;28;99127;-75
2021/12/06 09:16:46;;;;;;;1999.90;999.90;;;;;;;-2.85;60.27;101240.97;4943580;28;97717;-75
2021/12/06 09:19:15;;;;;;;1999.90;999.90;;;;;;;-2.82;60.38;101241.25;4942488;28;96839;-75
2021/12/06 09:21:43;;;;;;;1999.90;999.90;;;;;;;-2.79;59.93;101243.16;4943179;28;97269;-75
2021/12/06 09:24:14;;;;;;;1999.90;999.90;;;;;;;-2.76;59.89;101252.13;4941561;28;99331;-75
2021/12/06 09:26:42;;;;;;;1999.90;999.90;;;;;;;-2.72;60.05;101253.28;4944479;28;97536;-74
2021/12/06 09:29:10;;;;;;;1999.90;999.90;;;;;;;-2.71;60.15;101244.72;4943220;28;98012;-74
2021/12/06 09:31:38;;;;;;;1999.90;999.90;;;;;;;-2.73;60.09;101242.00;4943936;28;97894;-74
2021/12/06 09:34:06;;;;;;;1999.90;999.90;;;;;;;-2.75;59.84;101240.94;4942874;28;98950;-73
2021/12/06 09:36:35;;;;;;;1999.90;999.90;;;;;;;-2.80;60.02;101244.84;4942949;28;97765;-74
2021/12/06 09:39:04;;;;;;;1999.90;999.90;;;;;;;-2.84;59.89;101242.81;4943427;28;97210;-74
2021/12/06 09:41:34;;;;;;;1999.90;999.90;;;;;;;-2.82;59.82;101243.84;4942149;28;97653;-74
2021/12/06 09:44:06;;;;;;;1999.90;999.90;;;;;;;-2.85;59.56;101243.56;4941272;28;99739;-74
2021/12/06 09:46:36;;;;;;;1999.90;999.90;;;;;;;-2.85;59.66;101236.69;4942646;28;98902;-73
2021/12/06 09:49:07;;;;;;;1999.90;999.90;;;;;;;-2.84;60.09;101243.69;4943124;28;97569;-75
2021/12/06 09:51:36;;;;;;;1999.90;999.90;;;;;;;-2.82;60.27;101242.94;4943867;28;97006;-75
2021/12/06 09:54:04;;;;;;;1999.90;999.90;;;;;;;-2.82;60.19;101248.13;4941510;28;99001;-74
2021/12/06 09:56:36;;;;;;;1999.90;999.90;;;;;;;-2.81;59.90;101250.84;4942333;28;100367;-74
2021/12/06 09:59:09;;;;;;;1999.90;999.90;;;;;;;-2.82;59.89;101256.88;4941519;28;96786;-73
2021/12/06 10:01:39;;;;;;;1999.90;999.90;;;;;;;-2.81;60.17;101253.47;4940732;28;97688;-74
2021/12/06 10:04:10;;;;;;;1999.90;999.90;;;;;;;-2.79;59.44;101246.69;4942561;28;98979;-74
2021/12/06 10:06:39;;;;;;;1999.90;999.90;;;;;;;-2.76;59.66;101251.25;4943091;28;98924;-74
2021/12/06 10:09:09;;;;;;;1999.90;999.90;;;;;;;-2.78;59.43;101245.88;4943042;28;97004;-74
2021/12/06 10:11:40;;;;;;;1999.90;999.90;;;;;;;-2.78;59.44;101243.28;4942982;28;98583;-75
2021/12/06 10:14:08;;;;;;;1999.90;999.90;;;;;;;-2.76;59.51;101236.50;4941989;28;97657;-76
2021/12/06 10:16:37;;;;;;;1999.90;999.90;;;;;;;-2.74;60.02;101240.16;4942934;28;97904;-75
2021/12/06 10:19:06;;;;;;;1999.90;999.90;;;;;;;-2.73;59.25;101247.19;4941052;28;97381;-75
2021/12/06 10:21:35;;;;;;;1999.90;999.90;;;;;;;-2.73;59.37;101247.19;4941980;28;98580;-74
2021/12/06 10:24:03;;;;;;;1999.90;999.90;;;;;;;-2.71;59.70;101236.91;4940000;28;100437;-74
2021/12/06 10:26:32;;;;;;;1999.90;999.90;;;;;;;-2.70;59.46;101231.81;4940717;28;98731;-74
2021/12/06 10:29:05;;;;;;;1999.90;999.90;;;;;;;-2.65;59.66;101226.94;4942413;28;97455;-75
2021/12/06 10:31:38;;;;;;;1999.90;999.90;;;;;;;-2.63;59.62;101218.47;4940595;28;97135;-75
2021/12/06 10:34:06;;;;;;;1999.90;999.90;;;;;;;-2.60;58.98;101221.31;4940374;28;98809;-75
2021/12/06 10:36:35;;;;;;;1999.90;999.90;;;;;;;-2.58;59.70;101214.53;4941611;28;97534;-75
2021/12/06 10:39:06;;;;;;;1999.90;999.90;;;;;;;-2.57;59.33;101212.84;4924574;28;97856;-75
2021/12/06 10:41:36;;;;;;;1999.90;999.90;;;;;;;-2.54;59.76;101202.66;4940856;28;97349;-74
2021/12/06 10:44:09;;;;;;;1999.90;999.90;;;;;;;-2.54;59.27;101187.03;4941475;28;97712;-74
2021/12/06 10:46:39;;;;;;;1999.90;999.90;;;;;;;-2.52;59.25;101191.59;4941942;28;97741;-74
2021/12/06 10:49:09;;;;;;;1999.90;999.90;;;;;;;-2.52;59.44;101185.47;4940905;28;97444;-74
2021/12/06 10:51:37;;;;;;;1999.90;999.90;;;;;;;-2.52;59.36;101181.19;4942910;28;97487;-74
2021/12/06 10:54:16;;;;;;;1999.90;999.90;;;;;;;-2.53;59.48;101179.38;4941844;28;98785;-75
2021/12/06 10:56:47;;;;;;;1999.90;999.90;;;;;;;-2.55;59.17;101177.44;4942444;28;97914;-73
2021/12/06 10:59:19;;;;;;;1999.90;999.90;;;;;;;-2.54;59.63;101177.53;4939591;28;97708;-74
2021/12/06 11:01:49;;;;;;;1999.90;999.90;;;;;;;-2.52;59.30;101175.97;4941974;28;96904;-74
2021/12/06 11:04:19;;;;;;;1999.90;999.90;;;;;;;-2.49;58.75;101175.31;4944447;28;97990;-74